createdAt,value
2018-03-02T00:00:50.895Z,1008.26
2018-03-02T00:01:50.835Z,1008.27
2018-03-02T00:02:50.775Z,1008.22
2018-03-02T00:03:50.715Z,1008.23
2018-03-02T00:04:50.662Z,1008.23
2018-03-02T00:05:50.594Z,1008.23
2018-03-02T00:06:50.534Z,1008.19
2018-03-02T00:07:50.475Z,1008.18
2018-03-02T00:08:50.413Z,1008.19
2018-03-02T00:09:50.394Z,1008.22
2018-03-02T00:10:50.292Z,1008.20
2018-03-02T00:11:50.234Z,1008.18
2018-03-02T00:12:50.173Z,1008.16
2018-03-02T00:13:50.112Z,1008.15
2018-03-02T00:14:50.053Z,1008.13
2018-03-02T00:15:49.993Z,1008.14
2018-03-02T00:16:49.932Z,1008.15
2018-03-02T00:17:49.872Z,1008.12
2018-03-02T00:18:49.813Z,1008.11
2018-03-02T00:19:49.752Z,1008.14
2018-03-02T00:20:49.694Z,1008.13
2018-03-02T00:21:49.631Z,1008.18
2018-03-02T00:22:49.570Z,1008.15
2018-03-02T00:23:49.510Z,1008.07
2018-03-02T00:24:49.452Z,1008.10
2018-03-02T00:25:49.389Z,1008.07
2018-03-02T00:26:49.329Z,1008.07
2018-03-02T00:27:49.268Z,1008.10
2018-03-02T00:28:49.207Z,1008.04
2018-03-02T00:29:49.147Z,1008.07
2018-03-02T00:30:49.087Z,1008.01
2018-03-02T00:31:49.026Z,1007.96
2018-03-02T00:32:48.965Z,1007.94
2018-03-02T00:33:48.904Z,1007.93
2018-03-02T00:34:48.844Z,1007.97
2018-03-02T00:35:48.786Z,1007.98
2018-03-02T00:36:48.722Z,1007.96
2018-03-02T00:37:48.663Z,1007.92
2018-03-02T00:38:48.603Z,1007.94
2018-03-02T00:39:48.542Z,1007.94
2018-03-02T00:40:48.482Z,1007.87
2018-03-02T00:41:48.420Z,1007.86
2018-03-02T00:42:48.361Z,1007.82
2018-03-02T00:43:48.300Z,1007.82
2018-03-02T00:44:48.242Z,1007.78
2018-03-02T00:45:48.181Z,1007.79
2018-03-02T00:46:48.119Z,1007.75
2018-03-02T00:47:48.058Z,1007.75
2018-03-02T00:48:47.997Z,1007.70
2018-03-02T00:49:47.937Z,1007.74
2018-03-02T00:50:47.878Z,1007.72
2018-03-02T00:51:47.817Z,1007.68
2018-03-02T00:52:47.756Z,1007.66
2018-03-02T00:53:47.696Z,1007.66
2018-03-02T00:54:47.635Z,1007.61
2018-03-02T00:55:47.575Z,1007.64
2018-03-02T00:56:47.514Z,1007.68
2018-03-02T00:57:47.454Z,1007.65
2018-03-02T00:58:47.394Z,1007.63
2018-03-02T00:59:47.333Z,1007.63
2018-03-02T01:00:47.272Z,1007.65
2018-03-02T01:01:47.212Z,1007.66
2018-03-02T01:02:47.152Z,1007.63
2018-03-02T01:03:47.091Z,1007.64
2018-03-02T01:04:47.030Z,1007.60
2018-03-02T01:05:46.969Z,1007.61
2018-03-02T01:06:46.909Z,1007.61
2018-03-02T01:07:46.848Z,1007.55
2018-03-02T01:08:46.789Z,1007.59
2018-03-02T01:09:46.727Z,1007.56
2018-03-02T01:10:46.676Z,1007.49
2018-03-02T01:11:46.605Z,1007.50
2018-03-02T01:12:46.545Z,1007.47
2018-03-02T01:13:46.484Z,1007.45
2018-03-02T01:14:46.424Z,1007.45
2018-03-02T01:15:46.363Z,1007.46
2018-03-02T01:16:46.304Z,1007.45
2018-03-02T01:17:46.240Z,1007.41
2018-03-02T01:18:46.182Z,1007.39
2018-03-02T01:19:46.121Z,1007.40
2018-03-02T01:20:46.060Z,1007.36
2018-03-02T01:21:45.999Z,1007.32
2018-03-02T01:22:45.938Z,1007.28
2018-03-02T01:23:45.878Z,1007.26
2018-03-02T01:24:45.817Z,1007.28
2018-03-02T01:25:45.756Z,1007.24
2018-03-02T01:26:45.696Z,1007.19
2018-03-02T01:27:45.636Z,1007.14
2018-03-02T01:28:45.574Z,1007.13
2018-03-02T01:29:45.514Z,1007.10
2018-03-02T01:30:45.453Z,1007.09
2018-03-02T01:31:45.396Z,1007.06
2018-03-02T01:32:45.333Z,1007.02
2018-03-02T01:33:45.276Z,1006.98
2018-03-02T01:34:45.211Z,1007.01
2018-03-02T01:35:45.151Z,1006.99
2018-03-02T01:36:45.090Z,1006.96
2018-03-02T01:37:45.030Z,1006.96
2018-03-02T01:38:44.969Z,1006.95
2018-03-02T01:39:44.908Z,1006.93
2018-03-02T01:40:44.847Z,1006.92
2018-03-02T01:41:44.788Z,1006.93
2018-03-02T01:42:44.727Z,1006.87
2018-03-02T01:43:44.667Z,1006.87
2018-03-02T01:44:44.606Z,1006.84
2018-03-02T01:45:44.545Z,1006.87
2018-03-02T01:46:44.485Z,1006.83
2018-03-02T01:47:44.425Z,1006.86
2018-03-02T01:48:44.364Z,1006.87
2018-03-02T01:49:44.304Z,1006.83
2018-03-02T01:50:44.246Z,1006.84
2018-03-02T01:51:44.183Z,1006.86
2018-03-02T01:52:44.122Z,1006.81
2018-03-02T01:53:44.062Z,1006.82
2018-03-02T01:54:44.002Z,1006.81
2018-03-02T01:55:43.942Z,1006.81
2018-03-02T01:56:43.880Z,1006.79
2018-03-02T01:57:43.821Z,1006.77
2018-03-02T01:58:43.761Z,1006.78
2018-03-02T01:59:43.700Z,1006.73
2018-03-02T02:00:43.639Z,1006.71
2018-03-02T02:01:43.579Z,1006.70
2018-03-02T02:02:43.518Z,1006.63
2018-03-02T02:03:43.458Z,1006.69
2018-03-02T02:04:43.397Z,1006.65
2018-03-02T02:05:43.336Z,1006.64
2018-03-02T02:06:43.276Z,1006.61
2018-03-02T02:07:43.215Z,1006.62
2018-03-02T02:08:43.154Z,1006.60
2018-03-02T02:09:43.093Z,1006.60
2018-03-02T02:10:43.033Z,1006.54
2018-03-02T02:11:42.972Z,1006.51
2018-03-02T02:12:42.911Z,1006.41
2018-03-02T02:13:42.853Z,1006.45
2018-03-02T02:14:42.790Z,1006.48
2018-03-02T02:15:42.730Z,1006.41
2018-03-02T02:16:42.668Z,1006.36
2018-03-02T02:17:42.608Z,1006.37
2018-03-02T02:18:42.551Z,1006.40
2018-03-02T02:19:42.486Z,1006.38
2018-03-02T02:20:42.427Z,1006.38
2018-03-02T02:21:42.365Z,1006.37
2018-03-02T02:22:42.305Z,1006.34
2018-03-02T02:23:42.243Z,1006.30
2018-03-02T02:24:42.183Z,1006.29
2018-03-02T02:25:42.122Z,1006.31
2018-03-02T02:26:42.061Z,1006.28
2018-03-02T02:27:42.001Z,1006.25
2018-03-02T02:28:41.940Z,1006.26
2018-03-02T02:29:41.879Z,1006.17
2018-03-02T02:30:41.819Z,1006.21
2018-03-02T02:31:41.769Z,1006.21
2018-03-02T02:32:41.699Z,1006.20
2018-03-02T02:33:41.636Z,1006.22
2018-03-02T02:34:41.580Z,1006.17
2018-03-02T02:35:41.514Z,1006.17
2018-03-02T02:36:41.454Z,1006.17
2018-03-02T02:37:41.393Z,1006.22
2018-03-02T02:38:41.332Z,1006.12
2018-03-02T02:39:41.272Z,1006.14
2018-03-02T02:40:41.210Z,1006.14
2018-03-02T02:41:41.150Z,1006.16
2018-03-02T02:42:41.090Z,1006.13
2018-03-02T02:43:41.029Z,1006.09
2018-03-02T02:44:40.968Z,1006.12
2018-03-02T02:45:40.908Z,1006.12
2018-03-02T02:46:40.848Z,1006.13
2018-03-02T02:47:40.787Z,1006.19
2018-03-02T02:48:40.724Z,1006.16
2018-03-02T02:49:40.665Z,1006.13
2018-03-02T02:50:40.605Z,1006.23
2018-03-02T02:51:40.544Z,1006.17
2018-03-02T02:52:40.496Z,1006.18
2018-03-02T02:53:40.428Z,1006.16
2018-03-02T02:54:40.361Z,1006.16
2018-03-02T02:55:40.301Z,1006.12
2018-03-02T02:56:40.239Z,1006.19
2018-03-02T02:57:40.179Z,1006.12
2018-03-02T02:58:40.122Z,1006.10
2018-03-02T02:59:40.059Z,1006.16
2018-03-02T03:00:39.996Z,1006.16
2018-03-02T03:01:39.937Z,1006.13
2018-03-02T03:02:39.875Z,1006.11
2018-03-02T03:03:39.813Z,1006.12
2018-03-02T03:04:39.758Z,1006.11
2018-03-02T03:05:39.692Z,1006.06
2018-03-02T03:06:39.631Z,1006.08
2018-03-02T03:07:39.571Z,1006.02
2018-03-02T03:08:39.509Z,1006.06
2018-03-02T03:09:39.448Z,1006.04
2018-03-02T03:10:39.388Z,1006.04
2018-03-02T03:11:39.327Z,1006.05
2018-03-02T03:12:39.265Z,1006.03
2018-03-02T03:13:39.205Z,1006.11
2018-03-02T03:14:39.144Z,1005.99
2018-03-02T03:15:39.083Z,1005.93
2018-03-02T03:16:39.022Z,1005.98
2018-03-02T03:17:38.961Z,1005.95
2018-03-02T03:18:38.900Z,1005.95
2018-03-02T03:19:38.840Z,1005.99
2018-03-02T03:20:38.783Z,1005.95
2018-03-02T03:21:38.717Z,1005.95
2018-03-02T03:22:38.656Z,1005.93
2018-03-02T03:23:38.596Z,1005.96
2018-03-02T03:24:38.534Z,1005.91
2018-03-02T03:25:38.473Z,1005.91
2018-03-02T03:26:38.413Z,1005.89
2018-03-02T03:27:38.352Z,1005.98
2018-03-02T03:28:38.293Z,1005.96
2018-03-02T03:29:38.229Z,1005.92
2018-03-02T03:30:38.169Z,1005.92
2018-03-02T03:31:38.109Z,1005.91
2018-03-02T03:32:38.047Z,1005.91
2018-03-02T03:33:37.986Z,1005.85
2018-03-02T03:34:37.929Z,1005.83
2018-03-02T03:35:37.864Z,1005.81
2018-03-02T03:36:37.801Z,1005.83
2018-03-02T03:37:37.742Z,1005.82
2018-03-02T03:38:37.682Z,1005.79
2018-03-02T03:39:37.623Z,1005.78
2018-03-02T03:40:37.559Z,1005.78
2018-03-02T03:41:37.497Z,1005.81
2018-03-02T03:42:37.437Z,1005.83
2018-03-02T03:43:37.409Z,1005.77
2018-03-02T03:44:37.315Z,1005.77
2018-03-02T03:45:37.254Z,1005.78
2018-03-02T03:46:37.196Z,1005.79
2018-03-02T03:47:37.132Z,1005.75
2018-03-02T03:48:37.070Z,1005.78
2018-03-02T03:49:37.010Z,1005.78
2018-03-02T03:50:36.948Z,1005.73
2018-03-02T03:51:36.887Z,1005.71
2018-03-02T03:52:36.825Z,1005.69
2018-03-02T03:53:36.773Z,1005.65
2018-03-02T03:54:36.704Z,1005.64
2018-03-02T03:55:36.643Z,1005.66
2018-03-02T03:56:36.581Z,1005.61
2018-03-02T03:57:36.520Z,1005.63
2018-03-02T03:58:36.459Z,1005.62
2018-03-02T03:59:36.398Z,1005.63
2018-03-02T04:00:36.336Z,1005.58
2018-03-02T04:01:36.275Z,1005.53
2018-03-02T04:02:36.214Z,1005.55
2018-03-02T04:03:36.154Z,1005.54
2018-03-02T04:04:36.092Z,1005.50
2018-03-02T04:05:36.031Z,1005.51
2018-03-02T04:06:35.970Z,1005.51
2018-03-02T04:07:35.925Z,1005.49
2018-03-02T04:08:35.847Z,1005.49
2018-03-02T04:09:35.786Z,1005.50
2018-03-02T04:10:35.725Z,1005.50
2018-03-02T04:11:35.665Z,1005.43
2018-03-02T04:12:35.603Z,1005.43
2018-03-02T04:13:35.549Z,1005.40
2018-03-02T04:14:35.481Z,1005.46
2018-03-02T04:15:35.420Z,1005.46
2018-03-02T04:16:35.359Z,1005.42
2018-03-02T04:17:35.298Z,1005.38
2018-03-02T04:18:35.237Z,1005.40
2018-03-02T04:19:35.181Z,1005.42
2018-03-02T04:20:35.116Z,1005.38
2018-03-02T04:21:35.055Z,1005.34
2018-03-02T04:22:34.996Z,1005.36
2018-03-02T04:23:34.936Z,1005.44
2018-03-02T04:24:34.872Z,1005.40
2018-03-02T04:25:34.811Z,1005.41
2018-03-02T04:26:34.750Z,1005.37
2018-03-02T04:27:34.689Z,1005.38
2018-03-02T04:28:34.628Z,1005.35
2018-03-02T04:29:34.570Z,1005.34
2018-03-02T04:30:34.507Z,1005.32
2018-03-02T04:31:34.450Z,1005.35
2018-03-02T04:32:34.384Z,1005.29
2018-03-02T04:33:34.324Z,1005.29
2018-03-02T04:34:34.264Z,1005.29
2018-03-02T04:35:34.203Z,1005.24
2018-03-02T04:36:34.142Z,1005.30
2018-03-02T04:37:34.081Z,1005.32
2018-03-02T04:38:34.021Z,1005.27
2018-03-02T04:39:33.959Z,1005.29
2018-03-02T04:40:33.898Z,1005.23
2018-03-02T04:41:33.837Z,1005.27
2018-03-02T04:42:33.777Z,1005.23
2018-03-02T04:43:33.717Z,1005.23
2018-03-02T04:44:33.660Z,1005.24
2018-03-02T04:45:33.595Z,1005.21
2018-03-02T04:46:33.534Z,1005.23
2018-03-02T04:47:33.473Z,1005.24
2018-03-02T04:48:33.412Z,1005.22
2018-03-02T04:49:33.351Z,1005.18
2018-03-02T04:50:33.312Z,1005.13
2018-03-02T04:51:33.235Z,1005.14
2018-03-02T04:52:33.170Z,1005.11
2018-03-02T04:53:33.109Z,1005.13
2018-03-02T04:54:33.048Z,1005.09
2018-03-02T04:55:32.988Z,1005.09
2018-03-02T04:56:32.929Z,1005.08
2018-03-02T04:57:32.865Z,1005.07
2018-03-02T04:58:32.805Z,1005.06
2018-03-02T04:59:32.745Z,1005.08
2018-03-02T05:00:32.688Z,1005.06
2018-03-02T05:01:32.623Z,1005.03
2018-03-02T05:02:32.562Z,1005.03
2018-03-02T05:03:32.503Z,1005.06
2018-03-02T05:04:32.440Z,1005.10
2018-03-02T05:05:32.379Z,1005.05
2018-03-02T05:06:32.320Z,1005.09
2018-03-02T05:07:32.258Z,1005.05
2018-03-02T05:08:32.196Z,1005.04
2018-03-02T05:09:32.137Z,1005.05
2018-03-02T05:10:32.076Z,1005.04
2018-03-02T05:11:32.015Z,1005.01
2018-03-02T05:12:31.956Z,1005.04
2018-03-02T05:13:31.892Z,1005.00
2018-03-02T05:14:31.832Z,1005.03
2018-03-02T05:15:31.770Z,1005.08
2018-03-02T05:16:31.710Z,1005.05
2018-03-02T05:17:31.649Z,1005.02
2018-03-02T05:18:31.587Z,1005.07
2018-03-02T05:19:31.527Z,1004.99
2018-03-02T05:20:31.466Z,1005.00
2018-03-02T05:21:31.404Z,1004.98
2018-03-02T05:22:31.393Z,1005.00
2018-03-02T05:23:31.283Z,1005.03
2018-03-02T05:24:31.221Z,1005.08
2018-03-02T05:25:31.159Z,1005.01
2018-03-02T05:26:31.098Z,1005.03
2018-03-02T05:27:31.038Z,1005.03
2018-03-02T05:28:30.978Z,1005.01
2018-03-02T05:29:30.914Z,1005.00
2018-03-02T05:30:30.854Z,1005.01
2018-03-02T05:31:30.849Z,1005.01
2018-03-02T05:32:30.731Z,1004.97
2018-03-02T05:33:30.674Z,1004.93
2018-03-02T05:34:30.608Z,1004.95
2018-03-02T05:35:30.548Z,1004.93
2018-03-02T05:36:30.486Z,1005.02
2018-03-02T05:37:30.425Z,1004.93
2018-03-02T05:38:30.363Z,1004.96
2018-03-02T05:39:30.303Z,1004.93
2018-03-02T05:40:30.241Z,1004.95
2018-03-02T05:41:30.181Z,1004.92
2018-03-02T05:42:30.119Z,1004.89
2018-03-02T05:43:30.058Z,1004.90
2018-03-02T05:44:29.996Z,1004.87
2018-03-02T05:45:29.935Z,1004.86
2018-03-02T05:46:29.875Z,1004.85
2018-03-02T05:47:29.816Z,1004.83
2018-03-02T05:48:29.752Z,1004.75
2018-03-02T05:49:29.691Z,1004.78
2018-03-02T05:50:29.630Z,1004.79
2018-03-02T05:51:29.569Z,1004.76
2018-03-02T05:52:29.507Z,1004.78
2018-03-02T05:53:29.447Z,1004.80
2018-03-02T05:54:29.385Z,1004.82
2018-03-02T05:55:29.325Z,1004.82
2018-03-02T05:56:29.267Z,1004.78
2018-03-02T05:57:29.202Z,1004.79
2018-03-02T05:58:29.144Z,1004.78
2018-03-02T05:59:29.083Z,1004.83
2018-03-02T06:00:29.024Z,1004.81
2018-03-02T06:01:28.957Z,1004.80
2018-03-02T06:02:28.896Z,1004.81
2018-03-02T06:03:28.835Z,1004.84
2018-03-02T06:04:28.774Z,1004.87
2018-03-02T06:05:28.713Z,1004.83
2018-03-02T06:06:28.652Z,1004.81
2018-03-02T06:07:28.594Z,1004.78
2018-03-02T06:08:28.529Z,1004.85
2018-03-02T06:09:28.476Z,1004.83
2018-03-02T06:10:28.407Z,1004.82
2018-03-02T06:11:28.347Z,1004.83
2018-03-02T06:12:28.288Z,1004.85
2018-03-02T06:13:28.225Z,1004.92
2018-03-02T06:14:28.163Z,1004.91
2018-03-02T06:15:28.102Z,1004.95
2018-03-02T06:16:28.041Z,1004.94
2018-03-02T06:17:27.980Z,1004.91
2018-03-02T06:18:27.919Z,1004.99
2018-03-02T06:19:27.858Z,1004.95
2018-03-02T06:20:27.796Z,1004.94
2018-03-02T06:21:27.736Z,1004.94
2018-03-02T06:22:27.675Z,1004.91
2018-03-02T06:23:27.616Z,1004.95
2018-03-02T06:24:27.552Z,1004.94
2018-03-02T06:25:27.492Z,1004.91
2018-03-02T06:26:27.432Z,1004.91
2018-03-02T06:27:27.370Z,1004.89
2018-03-02T06:28:27.309Z,1004.92
2018-03-02T06:29:27.248Z,1004.92
2018-03-02T06:30:27.187Z,1004.90
2018-03-02T06:31:27.126Z,1004.92
2018-03-02T06:32:27.065Z,1004.92
2018-03-02T06:33:27.055Z,1004.94
2018-03-02T06:34:26.943Z,1004.93
2018-03-02T06:35:26.883Z,1004.90
2018-03-02T06:36:26.821Z,1004.87
2018-03-02T06:37:26.810Z,1004.84
2018-03-02T06:38:26.702Z,1004.86
2018-03-02T06:39:26.639Z,1004.87
2018-03-02T06:40:26.580Z,1004.87
2018-03-02T06:41:26.523Z,1004.82
2018-03-02T06:42:26.458Z,1004.78
2018-03-02T06:43:26.397Z,1004.80
2018-03-02T06:44:26.335Z,1004.79
2018-03-02T06:45:26.276Z,1004.80
2018-03-02T06:46:26.215Z,1004.79
2018-03-02T06:47:26.161Z,1004.78
2018-03-02T06:48:26.095Z,1004.80
2018-03-02T06:49:26.036Z,1004.71
2018-03-02T06:50:25.973Z,1004.72
2018-03-02T06:51:25.918Z,1004.76
2018-03-02T06:52:25.852Z,1004.76
2018-03-02T06:53:25.795Z,1004.74
2018-03-02T06:54:25.732Z,1004.73
2018-03-02T06:55:25.673Z,1004.69
2018-03-02T06:56:25.614Z,1004.69
2018-03-02T06:57:25.551Z,1004.81
2018-03-02T06:58:25.502Z,1004.84
2018-03-02T06:59:25.431Z,1004.84
2018-03-02T07:00:25.372Z,1004.86
2018-03-02T07:01:25.311Z,1004.90
2018-03-02T07:02:25.252Z,1004.89
2018-03-02T07:03:25.192Z,1004.87
2018-03-02T07:04:25.132Z,1004.92
2018-03-02T07:05:25.074Z,1004.91
2018-03-02T07:06:25.016Z,1004.96
2018-03-02T07:07:24.962Z,1004.89
2018-03-02T07:08:24.898Z,1004.95
2018-03-02T07:09:24.840Z,1004.93
2018-03-02T07:10:24.833Z,1004.92
2018-03-02T07:11:24.726Z,1004.97
2018-03-02T07:12:24.668Z,1004.96
2018-03-02T07:13:24.611Z,1005.02
2018-03-02T07:14:24.554Z,1005.01
2018-03-02T07:15:24.497Z,1004.98
2018-03-02T07:16:24.490Z,1005.00
2018-03-02T07:17:24.389Z,1005.02
2018-03-02T07:18:24.329Z,1004.96
2018-03-02T07:19:24.273Z,1005.02
2018-03-02T07:20:24.228Z,1005.03
2018-03-02T07:21:24.160Z,1004.96
2018-03-02T07:22:24.104Z,1004.98
2018-03-02T07:23:24.050Z,1004.93
2018-03-02T07:24:23.994Z,1004.91
2018-03-02T07:25:23.939Z,1004.93
2018-03-02T07:26:23.885Z,1004.90
2018-03-02T07:27:23.880Z,1004.90
2018-03-02T07:28:23.775Z,1004.90
2018-03-02T07:29:23.744Z,1004.90
2018-03-02T07:30:23.667Z,1004.92
2018-03-02T07:31:23.617Z,1004.89
2018-03-02T07:32:23.557Z,1004.93
2018-03-02T07:33:23.505Z,1004.89
2018-03-02T07:34:23.453Z,1004.90
2018-03-02T07:35:23.399Z,1004.92
2018-03-02T07:36:23.396Z,1004.84
2018-03-02T07:37:23.294Z,1004.89
2018-03-02T07:38:23.244Z,1004.87
2018-03-02T07:39:23.189Z,1004.83
2018-03-02T07:40:23.137Z,1004.86
2018-03-02T07:41:23.084Z,1004.84
2018-03-02T07:42:23.033Z,1004.81
2018-03-02T07:43:22.982Z,1004.81
2018-03-02T07:44:22.929Z,1004.74
2018-03-02T07:45:22.878Z,1004.80
2018-03-02T07:46:22.827Z,1004.78
2018-03-02T07:47:22.781Z,1004.77
2018-03-02T07:48:22.729Z,1004.78
2018-03-02T07:49:22.679Z,1004.79
2018-03-02T07:50:22.624Z,1004.82
2018-03-02T07:51:22.575Z,1004.79
2018-03-02T07:52:22.524Z,1004.78
2018-03-02T07:53:22.474Z,1004.75
2018-03-02T07:54:22.429Z,1004.70
2018-03-02T07:55:22.375Z,1004.69
2018-03-02T07:56:22.326Z,1004.70
2018-03-02T07:57:22.277Z,1004.76
2018-03-02T07:58:22.231Z,1004.76
2018-03-02T07:59:22.181Z,1004.74
2018-03-02T08:00:22.130Z,1004.74
2018-03-02T08:01:22.081Z,1004.76
2018-03-02T08:02:22.032Z,1004.75
2018-03-02T08:03:21.985Z,1004.74
2018-03-02T08:04:21.978Z,1004.70
2018-03-02T08:05:21.888Z,1004.66
2018-03-02T08:06:21.839Z,1004.66
2018-03-02T08:07:21.792Z,1004.64
2018-03-02T08:08:21.743Z,1004.60
2018-03-02T08:09:21.696Z,1004.59
2018-03-02T08:10:21.657Z,1004.57
2018-03-02T08:11:21.601Z,1004.56
2018-03-02T08:12:21.557Z,1004.55
2018-03-02T08:13:21.508Z,1004.58
2018-03-02T08:14:21.462Z,1004.53
2018-03-02T08:15:21.414Z,1004.54
2018-03-02T08:16:21.380Z,1004.54
2018-03-02T08:17:21.324Z,1004.51
2018-03-02T08:18:21.275Z,1004.50
2018-03-02T08:19:21.229Z,1004.55
2018-03-02T08:20:21.233Z,1004.58
2018-03-02T08:21:21.136Z,1004.62
2018-03-02T08:22:21.096Z,1004.60
2018-03-02T08:23:21.046Z,1004.67
2018-03-02T08:24:21.009Z,1004.73
2018-03-02T08:25:20.955Z,1004.78
2018-03-02T08:26:20.909Z,1004.94
2018-03-02T08:27:20.864Z,1005.03
2018-03-02T08:28:20.818Z,1004.82
2018-03-02T08:29:20.772Z,1004.51
2018-03-02T08:30:20.727Z,1004.51
2018-03-02T08:31:20.682Z,1004.42
2018-03-02T08:32:20.634Z,1004.41
2018-03-02T08:33:20.591Z,1004.41
2018-03-02T08:34:20.547Z,1004.39
2018-03-02T08:35:20.501Z,1004.40
2018-03-02T08:36:20.456Z,1004.38
2018-03-02T08:37:20.413Z,1004.42
2018-03-02T08:38:20.367Z,1004.40
2018-03-02T08:39:20.324Z,1004.36
2018-03-02T08:40:20.566Z,1004.38
2018-03-02T08:41:20.234Z,1004.32
2018-03-02T08:42:20.201Z,1004.34
2018-03-02T08:43:20.148Z,1004.35
2018-03-02T08:44:20.103Z,1004.40
2018-03-02T08:45:20.160Z,1004.51
2018-03-02T08:46:20.018Z,1004.63
2018-03-02T08:47:19.973Z,1004.62
2018-03-02T08:48:19.930Z,1004.53
2018-03-02T08:49:19.887Z,1004.61
2018-03-02T08:50:19.850Z,1004.59
2018-03-02T08:51:19.801Z,1004.59
2018-03-02T08:52:19.756Z,1004.69
2018-03-02T08:53:19.715Z,1004.64
2018-03-02T08:54:19.672Z,1004.71
2018-03-02T08:55:19.630Z,1004.67
2018-03-02T08:56:19.591Z,1004.78
2018-03-02T08:57:19.544Z,1004.62
2018-03-02T08:58:19.502Z,1004.63
2018-03-02T08:59:19.460Z,1004.68
2018-03-02T09:00:19.429Z,1004.71
2018-03-02T09:01:19.378Z,1004.79
2018-03-02T09:02:19.332Z,1004.84
2018-03-02T09:03:19.291Z,1004.84
2018-03-02T09:04:19.247Z,1004.75
2018-03-02T09:05:19.205Z,1004.44
2018-03-02T09:06:19.164Z,1004.08
2018-03-02T09:07:19.123Z,1004.06
2018-03-02T09:08:19.079Z,1004.07
2018-03-02T09:09:19.036Z,1003.98
2018-03-02T09:10:18.996Z,1003.98
2018-03-02T09:11:18.954Z,1003.91
2018-03-02T09:12:18.911Z,1003.87
2018-03-02T09:13:18.870Z,1003.87
2018-03-02T09:14:18.828Z,1003.80
2018-03-02T09:15:18.806Z,1003.78
2018-03-02T09:16:18.743Z,1003.79
2018-03-02T09:17:18.750Z,1003.78
2018-03-02T09:18:18.661Z,1003.73
2018-03-02T09:19:18.620Z,1003.71
2018-03-02T09:20:18.574Z,1003.70
2018-03-02T09:21:18.536Z,1003.66
2018-03-02T09:22:18.489Z,1003.62
2018-03-02T09:23:18.448Z,1003.57
2018-03-02T09:24:18.404Z,1003.59
2018-03-02T09:25:18.363Z,1003.63
2018-03-02T09:26:18.319Z,1003.62
2018-03-02T09:27:18.280Z,1003.57
2018-03-02T09:28:18.234Z,1003.55
2018-03-02T09:29:18.192Z,1003.56
2018-03-02T09:30:18.149Z,1003.49
2018-03-02T09:31:18.106Z,1003.45
2018-03-02T09:32:18.062Z,1003.41
2018-03-02T09:33:18.019Z,1003.40
2018-03-02T09:34:17.979Z,1003.35
2018-03-02T09:35:17.932Z,1003.38
2018-03-02T09:36:17.885Z,1003.43
2018-03-02T09:37:17.875Z,1003.40
2018-03-02T09:38:17.798Z,1003.38
2018-03-02T09:39:17.754Z,1003.34
2018-03-02T09:40:17.709Z,1003.36
2018-03-02T09:41:17.663Z,1003.33
2018-03-02T09:42:17.617Z,1003.33
2018-03-02T09:43:17.574Z,1003.28
2018-03-02T09:44:17.526Z,1003.26
2018-03-02T09:45:17.481Z,1003.14
2018-03-02T09:46:17.435Z,1003.07
2018-03-02T09:47:17.391Z,1003.01
2018-03-02T09:48:17.348Z,1003.07
2018-03-02T09:49:17.296Z,1003.01
2018-03-02T09:50:17.250Z,1003.01
2018-03-02T09:51:17.203Z,1003.06
2018-03-02T09:52:17.155Z,1003.00
2018-03-02T09:53:17.108Z,1002.93
2018-03-02T09:54:17.059Z,1002.86
2018-03-02T09:55:17.013Z,1002.88
2018-03-02T09:56:16.962Z,1002.86
2018-03-02T09:57:16.915Z,1002.86
2018-03-02T09:58:16.864Z,1002.89
2018-03-02T09:59:16.853Z,1002.81
2018-03-02T10:00:16.769Z,1002.85
2018-03-02T10:01:16.715Z,1002.79
2018-03-02T10:02:16.667Z,1002.83
2018-03-02T10:03:16.615Z,1002.74
2018-03-02T10:04:16.562Z,1002.78
2018-03-02T10:05:16.512Z,1002.73
2018-03-02T10:06:16.464Z,1002.72
2018-03-02T10:07:16.410Z,1002.73
2018-03-02T10:08:16.357Z,1002.71
2018-03-02T10:09:16.310Z,1002.66
2018-03-02T10:10:16.254Z,1002.66
2018-03-02T10:11:16.202Z,1002.62
2018-03-02T10:12:16.149Z,1002.59
2018-03-02T10:13:16.100Z,1002.64
2018-03-02T10:14:16.045Z,1002.67
2018-03-02T10:15:15.992Z,1002.59
2018-03-02T10:16:15.938Z,1002.54
2018-03-02T10:17:15.901Z,1002.59
2018-03-02T10:18:15.833Z,1002.50
2018-03-02T10:19:15.779Z,1002.52
2018-03-02T10:20:15.728Z,1002.60
2018-03-02T10:21:15.672Z,1002.52
2018-03-02T10:22:15.621Z,1002.54
2018-03-02T10:23:15.565Z,1002.50
2018-03-02T10:24:15.512Z,1002.46
2018-03-02T10:25:15.457Z,1002.44
2018-03-02T10:26:15.404Z,1002.46
2018-03-02T10:27:15.348Z,1002.34
2018-03-02T10:28:15.295Z,1002.34
2018-03-02T10:29:15.291Z,1002.37
2018-03-02T10:30:15.192Z,1002.35
2018-03-02T10:31:15.133Z,1002.30
2018-03-02T10:32:15.078Z,1002.34
2018-03-02T10:33:15.023Z,1002.28
2018-03-02T10:34:14.968Z,1002.31
2018-03-02T10:35:14.916Z,1002.24
2018-03-02T10:36:14.859Z,1002.21
2018-03-02T10:37:14.806Z,1002.16
2018-03-02T10:38:14.751Z,1002.14
2018-03-02T10:39:14.697Z,1002.17
2018-03-02T10:40:14.645Z,1002.10
2018-03-02T10:41:14.587Z,1002.07
2018-03-02T10:42:14.533Z,1002.12
2018-03-02T10:43:14.478Z,1002.06
2018-03-02T10:44:14.423Z,1002.07
2018-03-02T10:45:14.368Z,1002.08
2018-03-02T10:46:14.314Z,1002.09
2018-03-02T10:47:14.260Z,1002.05
2018-03-02T10:48:14.206Z,1002.04
2018-03-02T10:49:14.165Z,1002.01
2018-03-02T10:50:14.095Z,1002.01
2018-03-02T10:51:14.041Z,1002.00
2018-03-02T10:52:13.985Z,1002.07
2018-03-02T10:53:13.930Z,1001.99
2018-03-02T10:54:13.875Z,1001.99
2018-03-02T10:55:13.822Z,1001.98
2018-03-02T10:56:13.783Z,1001.95
2018-03-02T10:57:13.712Z,1002.00
2018-03-02T10:58:13.656Z,1001.93
2018-03-02T10:59:13.601Z,1001.93
2018-03-02T11:00:13.546Z,1001.87
2018-03-02T11:01:13.492Z,1001.78
2018-03-02T11:02:13.438Z,1001.77
2018-03-02T11:03:13.383Z,1001.81
2018-03-02T11:04:13.327Z,1001.78
2018-03-02T11:05:13.287Z,1001.83
2018-03-02T11:06:13.219Z,1001.77
2018-03-02T11:07:13.164Z,1001.75
2018-03-02T11:08:13.109Z,1001.76
2018-03-02T11:09:13.054Z,1001.73
2018-03-02T11:10:12.999Z,1001.77
2018-03-02T11:11:12.944Z,1001.67
2018-03-02T11:12:12.889Z,1001.72
2018-03-02T11:13:12.839Z,1001.71
2018-03-02T11:14:12.778Z,1001.65
2018-03-02T11:15:12.725Z,1001.65
2018-03-02T11:16:12.669Z,1001.61
2018-03-02T11:17:12.615Z,1001.60
2018-03-02T11:18:12.559Z,1001.56
2018-03-02T11:19:12.505Z,1001.65
2018-03-02T11:20:12.452Z,1001.62
2018-03-02T11:21:12.393Z,1001.60
2018-03-02T11:22:12.341Z,1001.60
2018-03-02T11:23:12.286Z,1001.54
2018-03-02T11:24:12.280Z,1001.53
2018-03-02T11:25:12.175Z,1001.49
2018-03-02T11:26:12.121Z,1001.54
2018-03-02T11:27:12.068Z,1001.54
2018-03-02T11:28:12.015Z,1001.51
2018-03-02T11:29:11.956Z,1001.51
2018-03-02T11:30:11.908Z,1001.52
2018-03-02T11:31:11.847Z,1001.45
2018-03-02T11:32:11.790Z,1001.45
2018-03-02T11:33:11.737Z,1001.56
2018-03-02T11:34:11.682Z,1001.39
2018-03-02T11:35:11.628Z,1001.42
2018-03-02T11:36:11.572Z,1001.39
2018-03-02T11:37:11.517Z,1001.34
2018-03-02T11:38:11.466Z,1001.31
2018-03-02T11:39:11.409Z,1001.38
2018-03-02T11:40:11.352Z,1001.28
2018-03-02T11:41:11.299Z,1001.36
2018-03-02T11:42:11.244Z,1001.31
2018-03-02T11:43:11.188Z,1001.31
2018-03-02T11:44:11.132Z,1001.28
2018-03-02T11:45:11.079Z,1001.21
2018-03-02T11:46:11.022Z,1001.23
2018-03-02T11:47:10.968Z,1001.17
2018-03-02T11:48:10.912Z,1001.19
2018-03-02T11:49:10.859Z,1001.16
2018-03-02T11:50:10.803Z,1001.21
2018-03-02T11:51:10.748Z,1001.23
2018-03-02T11:52:10.692Z,1001.16
2018-03-02T11:53:10.639Z,1001.18
2018-03-02T11:54:10.584Z,1001.17
2018-03-02T11:55:10.528Z,1001.14
2018-03-02T11:56:10.472Z,1001.08
2018-03-02T11:57:10.416Z,1001.07
2018-03-02T11:58:10.362Z,1001.15
2018-03-02T11:59:10.307Z,1001.12
2018-03-02T12:00:10.252Z,1001.06
2018-03-02T12:01:10.200Z,1001.01
2018-03-02T12:02:10.141Z,1001.00
2018-03-02T12:03:10.087Z,1001.00
2018-03-02T12:04:10.030Z,1000.97
2018-03-02T12:05:09.976Z,1001.00